sensor_id;sensor_type;location;lat;lon;timestamp;P1;durP1;ratioP1;P2;durP2;ratioP2
3415;SDS011;1721;51.238;9.562;2022-12-10T00:01:25;18.20;;;8.15;;
3415;SDS011;1721;51.238;9.562;2022-12-10T00:03:52;18.85;;;7.70;;
3415;SDS011;1721;51.238;9.562;2022-12-10T00:06:18;20.63;;;8.13;;
3415;SDS011;1721;51.238;9.562;2022-12-10T00:08:46;20.48;;;7.43;;
3415;SDS011;1721;51.238;9.562;2022-12-10T00:11:13;17.95;;;8.40;;
3415;SDS011;1721;51.238;9.562;2022-12-10T00:13:40;17.50;;;7.45;;
3415;SDS011;1721;51.238;9.562;2022-12-10T00:16:07;14.95;;;7.15;;
3415;SDS011;1721;51.238;9.562;2022-12-10T00:18:34;19.70;;;7.60;;
3415;SDS011;1721;51.238;9.562;2022-12-10T00:21:07;21.00;;;7.72;;
3415;SDS011;1721;51.238;9.562;2022-12-10T00:23:35;21.98;;;8.45;;
3415;SDS011;1721;51.238;9.562;2022-12-10T00:26:20;19.75;;;7.60;;
3415;SDS011;1721;51.238;9.562;2022-12-10T00:28:48;18.83;;;8.23;;
3415;SDS011;1721;51.238;9.562;2022-12-10T00:31:15;18.55;;;7.13;;
3415;SDS011;1721;51.238;9.562;2022-12-10T00:33:46;17.05;;;8.10;;
3415;SDS011;1721;51.238;9.562;2022-12-10T00:36:13;20.50;;;8.00;;
3415;SDS011;1721;51.238;9.562;2022-12-10T00:38:40;17.90;;;7.88;;
3415;SDS011;1721;51.238;9.562;2022-12-10T00:41:07;18.85;;;7.60;;
3415;SDS011;1721;51.238;9.562;2022-12-10T00:43:33;18.55;;;7.45;;
3415;SDS011;1721;51.238;9.562;2022-12-10T00:45:59;18.58;;;8.00;;
3415;SDS011;1721;51.238;9.562;2022-12-10T00:48:25;21.80;;;7.63;;
3415;SDS011;1721;51.238;9.562;2022-12-10T00:50:55;17.60;;;7.55;;
3415;SDS011;1721;51.238;9.562;2022-12-10T00:53:20;17.77;;;7.95;;
3415;SDS011;1721;51.238;9.562;2022-12-10T00:55:46;17.40;;;7.30;;
3415;SDS011;1721;51.238;9.562;2022-12-10T00:58:12;17.53;;;7.43;;
3415;SDS011;1721;51.238;9.562;2022-12-10T01:00:41;18.50;;;7.90;;
3415;SDS011;1721;51.238;9.562;2022-12-10T01:03:06;16.70;;;7.35;;
3415;SDS011;1721;51.238;9.562;2022-12-10T01:05:32;18.23;;;7.80;;
3415;SDS011;1721;51.238;9.562;2022-12-10T01:07:58;19.33;;;7.70;;
3415;SDS011;1721;51.238;9.562;2022-12-10T01:10:23;18.87;;;8.13;;
3415;SDS011;1721;51.238;9.562;2022-12-10T01:12:49;17.30;;;7.30;;
3415;SDS011;1721;51.238;9.562;2022-12-10T01:15:14;19.27;;;7.90;;
3415;SDS011;1721;51.238;9.562;2022-12-10T01:17:40;19.83;;;8.10;;
3415;SDS011;1721;51.238;9.562;2022-12-10T01:20:05;18.00;;;7.97;;
3415;SDS011;1721;51.238;9.562;2022-12-10T01:22:31;20.00;;;7.68;;
3415;SDS011;1721;51.238;9.562;2022-12-10T01:24:57;18.60;;;7.47;;
3415;SDS011;1721;51.238;9.562;2022-12-10T01:27:22;17.77;;;7.20;;
3415;SDS011;1721;51.238;9.562;2022-12-10T01:29:48;21.90;;;8.33;;
3415;SDS011;1721;51.238;9.562;2022-12-10T01:32:13;18.80;;;7.47;;
3415;SDS011;1721;51.238;9.562;2022-12-10T01:34:39;15.63;;;7.10;;
3415;SDS011;1721;51.238;9.562;2022-12-10T01:37:05;18.10;;;7.75;;
3415;SDS011;1721;51.238;9.562;2022-12-10T01:39:30;18.97;;;7.97;;
3415;SDS011;1721;51.238;9.562;2022-12-10T01:41:57;16.83;;;6.83;;
3415;SDS011;1721;51.238;9.562;2022-12-10T01:46:53;18.57;;;7.20;;
3415;SDS011;1721;51.238;9.562;2022-12-10T01:49:35;18.85;;;7.63;;
3415;SDS011;1721;51.238;9.562;2022-12-10T01:52:02;17.35;;;7.45;;
3415;SDS011;1721;51.238;9.562;2022-12-10T01:54:35;18.33;;;7.25;;
3415;SDS011;1721;51.238;9.562;2022-12-10T01:57:06;15.40;;;6.73;;
3415;SDS011;1721;51.238;9.562;2022-12-10T01:59:32;18.80;;;8.40;;
3415;SDS011;1721;51.238;9.562;2022-12-10T02:02:11;19.13;;;7.30;;
3415;SDS011;1721;51.238;9.562;2022-12-10T02:12:49;21.00;;;8.48;;
3415;SDS011;1721;51.238;9.562;2022-12-10T02:15:34;19.27;;;7.55;;
3415;SDS011;1721;51.238;9.562;2022-12-10T02:18:18;18.45;;;7.55;;
3415;SDS011;1721;51.238;9.562;2022-12-10T02:20:57;21.73;;;8.40;;
3415;SDS011;1721;51.238;9.562;2022-12-10T02:23:45;18.38;;;7.63;;
3415;SDS011;1721;51.238;9.562;2022-12-10T02:26:24;23.67;;;8.50;;
3415;SDS011;1721;51.238;9.562;2022-12-10T02:29:17;18.00;;;7.30;;
3415;SDS011;1721;51.238;9.562;2022-12-10T02:31:49;18.88;;;7.35;;
3415;SDS011;1721;51.238;9.562;2022-12-10T02:34:18;22.70;;;8.88;;
3415;SDS011;1721;51.238;9.562;2022-12-10T02:36:46;19.15;;;8.45;;
3415;SDS011;1721;51.238;9.562;2022-12-10T02:39:15;20.60;;;8.40;;
3415;SDS011;1721;51.238;9.562;2022-12-10T02:41:49;18.90;;;7.70;;
3415;SDS011;1721;51.238;9.562;2022-12-10T02:44:18;19.27;;;7.85;;
3415;SDS011;1721;51.238;9.562;2022-12-10T02:46:45;20.55;;;7.50;;
3415;SDS011;1721;51.238;9.562;2022-12-10T02:49:14;21.50;;;7.72;;
3415;SDS011;1721;51.238;9.562;2022-12-10T02:51:41;21.52;;;8.27;;
3415;SDS011;1721;51.238;9.562;2022-12-10T02:54:32;21.70;;;8.30;;
3415;SDS011;1721;51.238;9.562;2022-12-10T02:56:59;19.58;;;7.70;;
3415;SDS011;1721;51.238;9.562;2022-12-10T02:59:29;15.93;;;7.03;;
3415;SDS011;1721;51.238;9.562;2022-12-10T03:02:10;19.90;;;8.25;;
3415;SDS011;1721;51.238;9.562;2022-12-10T03:05:02;20.88;;;8.18;;
3415;SDS011;1721;51.238;9.562;2022-12-10T03:10:32;18.00;;;7.78;;
3415;SDS011;1721;51.238;9.562;2022-12-10T03:12:59;18.98;;;8.30;;
3415;SDS011;1721;51.238;9.562;2022-12-10T03:15:27;19.03;;;8.17;;
3415;SDS011;1721;51.238;9.562;2022-12-10T03:17:57;22.00;;;8.35;;
3415;SDS011;1721;51.238;9.562;2022-12-10T03:20:25;21.90;;;8.50;;
3415;SDS011;1721;51.238;9.562;2022-12-10T03:22:52;21.25;;;8.68;;
3415;SDS011;1721;51.238;9.562;2022-12-10T03:25:19;20.47;;;8.23;;
3415;SDS011;1721;51.238;9.562;2022-12-10T03:27:49;21.37;;;7.77;;
3415;SDS011;1721;51.238;9.562;2022-12-10T03:30:18;21.67;;;8.55;;
3415;SDS011;1721;51.238;9.562;2022-12-10T03:32:44;20.42;;;8.18;;
3415;SDS011;1721;51.238;9.562;2022-12-10T03:35:10;24.50;;;9.20;;
3415;SDS011;1721;51.238;9.562;2022-12-10T03:37:37;18.40;;;8.60;;
3415;SDS011;1721;51.238;9.562;2022-12-10T03:40:03;19.47;;;7.90;;
3415;SDS011;1721;51.238;9.562;2022-12-10T03:42:31;18.35;;;8.57;;
3415;SDS011;1721;51.238;9.562;2022-12-10T03:44:56;19.73;;;8.35;;
3415;SDS011;1721;51.238;9.562;2022-12-10T03:47:22;21.38;;;8.60;;
3415;SDS011;1721;51.238;9.562;2022-12-10T03:49:48;21.42;;;9.68;;
3415;SDS011;1721;51.238;9.562;2022-12-10T03:52:14;25.37;;;10.13;;
3415;SDS011;1721;51.238;9.562;2022-12-10T03:54:40;22.08;;;8.10;;
3415;SDS011;1721;51.238;9.562;2022-12-10T03:57:06;21.13;;;8.63;;
3415;SDS011;1721;51.238;9.562;2022-12-10T03:59:31;21.63;;;9.20;;
3415;SDS011;1721;51.238;9.562;2022-12-10T04:01:57;22.58;;;8.55;;
3415;SDS011;1721;51.238;9.562;2022-12-10T04:04:23;21.05;;;9.02;;
3415;SDS011;1721;51.238;9.562;2022-12-10T04:06:48;23.55;;;9.00;;
3415;SDS011;1721;51.238;9.562;2022-12-10T04:09:14;21.75;;;8.60;;
3415;SDS011;1721;51.238;9.562;2022-12-10T04:11:40;20.83;;;8.80;;
3415;SDS011;1721;51.238;9.562;2022-12-10T04:14:07;20.70;;;9.17;;
3415;SDS011;1721;51.238;9.562;2022-12-10T04:16:52;22.23;;;10.35;;
3415;SDS011;1721;51.238;9.562;2022-12-10T04:19:18;22.53;;;9.53;;
3415;SDS011;1721;51.238;9.562;2022-12-10T04:21:45;21.80;;;9.10;;
3415;SDS011;1721;51.238;9.562;2022-12-10T04:24:30;26.92;;;10.23;;
3415;SDS011;1721;51.238;9.562;2022-12-10T04:27:17;23.25;;;9.90;;
3415;SDS011;1721;51.238;9.562;2022-12-10T04:29:46;24.15;;;9.60;;
3415;SDS011;1721;51.238;9.562;2022-12-10T04:32:12;24.90;;;9.38;;
3415;SDS011;1721;51.238;9.562;2022-12-10T04:34:38;24.50;;;9.82;;
3415;SDS011;1721;51.238;9.562;2022-12-10T04:37:04;24.73;;;9.95;;
3415;SDS011;1721;51.238;9.562;2022-12-10T04:39:30;24.52;;;9.63;;
3415;SDS011;1721;51.238;9.562;2022-12-10T04:41:56;25.25;;;9.73;;
3415;SDS011;1721;51.238;9.562;2022-12-10T04:44:22;25.20;;;10.20;;
3415;SDS011;1721;51.238;9.562;2022-12-10T04:46:47;23.93;;;9.20;;
3415;SDS011;1721;51.238;9.562;2022-12-10T04:49:14;26.73;;;10.23;;
3415;SDS011;1721;51.238;9.562;2022-12-10T04:51:39;27.92;;;9.85;;
3415;SDS011;1721;51.238;9.562;2022-12-10T04:54:06;25.90;;;9.55;;
3415;SDS011;1721;51.238;9.562;2022-12-10T04:56:32;27.25;;;10.25;;
3415;SDS011;1721;51.238;9.562;2022-12-10T04:58:58;25.85;;;9.80;;
3415;SDS011;1721;51.238;9.562;2022-12-10T05:01:25;26.10;;;10.20;;
3415;SDS011;1721;51.238;9.562;2022-12-10T05:03:51;26.10;;;10.40;;
3415;SDS011;1721;51.238;9.562;2022-12-10T05:06:17;24.90;;;10.47;;
3415;SDS011;1721;51.238;9.562;2022-12-10T05:08:44;23.05;;;10.30;;
3415;SDS011;1721;51.238;9.562;2022-12-10T05:11:11;25.35;;;10.65;;
3415;SDS011;1721;51.238;9.562;2022-12-10T05:13:39;23.17;;;10.20;;
3415;SDS011;1721;51.238;9.562;2022-12-10T05:16:06;25.80;;;11.17;;
3415;SDS011;1721;51.238;9.562;2022-12-10T05:18:34;23.33;;;10.10;;
3415;SDS011;1721;51.238;9.562;2022-12-10T05:21:00;21.63;;;10.45;;
3415;SDS011;1721;51.238;9.562;2022-12-10T05:23:28;29.42;;;11.38;;
3415;SDS011;1721;51.238;9.562;2022-12-10T05:26:01;27.60;;;10.95;;
3415;SDS011;1721;51.238;9.562;2022-12-10T05:28:27;29.10;;;11.18;;
3415;SDS011;1721;51.238;9.562;2022-12-10T05:30:54;27.63;;;10.30;;
3415;SDS011;1721;51.238;9.562;2022-12-10T05:33:19;27.15;;;10.82;;
3415;SDS011;1721;51.238;9.562;2022-12-10T05:36:19;28.30;;;10.70;;
3415;SDS011;1721;51.238;9.562;2022-12-10T05:38:39;29.75;;;10.85;;
3415;SDS011;1721;51.238;9.562;2022-12-10T05:41:06;23.02;;;9.50;;
3415;SDS011;1721;51.238;9.562;2022-12-10T05:43:39;22.43;;;8.97;;
3415;SDS011;1721;51.238;9.562;2022-12-10T05:46:06;27.48;;;10.20;;
3415;SDS011;1721;51.238;9.562;2022-12-10T05:48:35;25.95;;;9.77;;
3415;SDS011;1721;51.238;9.562;2022-12-10T05:51:05;28.00;;;9.40;;
3415;SDS011;1721;51.238;9.562;2022-12-10T05:53:36;25.52;;;10.18;;
3415;SDS011;1721;51.238;9.562;2022-12-10T05:56:02;28.00;;;10.13;;
3415;SDS011;1721;51.238;9.562;2022-12-10T05:58:32;31.70;;;10.50;;
3415;SDS011;1721;51.238;9.562;2022-12-10T06:00:59;24.13;;;9.57;;
3415;SDS011;1721;51.238;9.562;2022-12-10T06:03:26;26.05;;;10.15;;
3415;SDS011;1721;51.238;9.562;2022-12-10T06:05:52;28.45;;;11.25;;
3415;SDS011;1721;51.238;9.562;2022-12-10T06:08:18;24.23;;;10.25;;
3415;SDS011;1721;51.238;9.562;2022-12-10T06:10:44;26.70;;;10.50;;
3415;SDS011;1721;51.238;9.562;2022-12-10T06:13:10;23.70;;;10.20;;
3415;SDS011;1721;51.238;9.562;2022-12-10T06:15:37;26.53;;;10.77;;
3415;SDS011;1721;51.238;9.562;2022-12-10T06:18:04;31.65;;;11.38;;
3415;SDS011;1721;51.238;9.562;2022-12-10T06:20:29;28.55;;;10.75;;
3415;SDS011;1721;51.238;9.562;2022-12-10T06:22:55;25.87;;;10.40;;
3415;SDS011;1721;51.238;9.562;2022-12-10T06:25:21;25.73;;;11.17;;
3415;SDS011;1721;51.238;9.562;2022-12-10T06:27:46;27.95;;;11.20;;
3415;SDS011;1721;51.238;9.562;2022-12-10T06:30:12;28.13;;;10.77;;
3415;SDS011;1721;51.238;9.562;2022-12-10T06:32:38;29.67;;;10.97;;
3415;SDS011;1721;51.238;9.562;2022-12-10T06:35:04;28.35;;;10.82;;
3415;SDS011;1721;51.238;9.562;2022-12-10T06:37:30;29.20;;;11.63;;
3415;SDS011;1721;51.238;9.562;2022-12-10T06:39:56;31.10;;;12.00;;
3415;SDS011;1721;51.238;9.562;2022-12-10T06:42:21;28.90;;;11.63;;
3415;SDS011;1721;51.238;9.562;2022-12-10T06:44:47;29.93;;;12.10;;
3415;SDS011;1721;51.238;9.562;2022-12-10T06:47:13;31.60;;;12.20;;
3415;SDS011;1721;51.238;9.562;2022-12-10T06:49:39;28.77;;;12.38;;
3415;SDS011;1721;51.238;9.562;2022-12-10T06:52:05;30.77;;;12.02;;
3415;SDS011;1721;51.238;9.562;2022-12-10T06:54:32;28.50;;;11.77;;
3415;SDS011;1721;51.238;9.562;2022-12-10T06:56:58;38.03;;;13.47;;
3415;SDS011;1721;51.238;9.562;2022-12-10T06:59:24;31.13;;;12.10;;
3415;SDS011;1721;51.238;9.562;2022-12-10T07:01:50;34.20;;;11.97;;
3415;SDS011;1721;51.238;9.562;2022-12-10T07:04:15;32.70;;;12.60;;
3415;SDS011;1721;51.238;9.562;2022-12-10T07:06:41;32.92;;;12.68;;
3415;SDS011;1721;51.238;9.562;2022-12-10T07:09:07;33.10;;;12.50;;
3415;SDS011;1721;51.238;9.562;2022-12-10T07:11:34;37.55;;;12.65;;
3415;SDS011;1721;51.238;9.562;2022-12-10T07:14:00;33.35;;;11.90;;
3415;SDS011;1721;51.238;9.562;2022-12-10T07:16:26;34.47;;;12.10;;
3415;SDS011;1721;51.238;9.562;2022-12-10T07:18:54;33.10;;;13.20;;
3415;SDS011;1721;51.238;9.562;2022-12-10T07:21:31;40.80;;;13.02;;
3415;SDS011;1721;51.238;9.562;2022-12-10T07:24:00;35.67;;;11.80;;
3415;SDS011;1721;51.238;9.562;2022-12-10T07:26:28;35.10;;;12.23;;
3415;SDS011;1721;51.238;9.562;2022-12-10T07:28:55;35.33;;;13.18;;
3415;SDS011;1721;51.238;9.562;2022-12-10T07:31:20;37.23;;;12.43;;
3415;SDS011;1721;51.238;9.562;2022-12-10T07:33:47;36.00;;;13.02;;
3415;SDS011;1721;51.238;9.562;2022-12-10T07:36:13;34.67;;;12.93;;
3415;SDS011;1721;51.238;9.562;2022-12-10T07:38:39;42.17;;;14.60;;
3415;SDS011;1721;51.238;9.562;2022-12-10T07:41:09;36.73;;;13.30;;
3415;SDS011;1721;51.238;9.562;2022-12-10T07:43:37;36.38;;;13.07;;
3415;SDS011;1721;51.238;9.562;2022-12-10T07:46:08;31.17;;;12.57;;
3415;SDS011;1721;51.238;9.562;2022-12-10T07:48:37;37.83;;;12.32;;
3415;SDS011;1721;51.238;9.562;2022-12-10T07:51:04;33.53;;;12.48;;
3415;SDS011;1721;51.238;9.562;2022-12-10T07:53:30;32.97;;;11.70;;
3415;SDS011;1721;51.238;9.562;2022-12-10T07:55:56;31.38;;;11.98;;
3415;SDS011;1721;51.238;9.562;2022-12-10T07:58:21;36.13;;;13.73;;
3415;SDS011;1721;51.238;9.562;2022-12-10T08:00:47;40.80;;;12.30;;
3415;SDS011;1721;51.238;9.562;2022-12-10T08:03:13;35.20;;;11.97;;
3415;SDS011;1721;51.238;9.562;2022-12-10T08:05:38;32.85;;;12.45;;
3415;SDS011;1721;51.238;9.562;2022-12-10T08:08:04;37.78;;;13.02;;
3415;SDS011;1721;51.238;9.562;2022-12-10T08:10:32;32.38;;;13.10;;
3415;SDS011;1721;51.238;9.562;2022-12-10T08:12:59;33.03;;;11.40;;
3415;SDS011;1721;51.238;9.562;2022-12-10T08:15:24;36.00;;;12.70;;
3415;SDS011;1721;51.238;9.562;2022-12-10T08:17:50;31.42;;;10.52;;
3415;SDS011;1721;51.238;9.562;2022-12-10T08:20:16;32.03;;;11.77;;
3415;SDS011;1721;51.238;9.562;2022-12-10T08:22:41;31.00;;;11.00;;
3415;SDS011;1721;51.238;9.562;2022-12-10T08:25:07;28.60;;;10.90;;
3415;SDS011;1721;51.238;9.562;2022-12-10T08:27:32;32.72;;;10.90;;
3415;SDS011;1721;51.238;9.562;2022-12-10T08:29:58;29.13;;;11.27;;
3415;SDS011;1721;51.238;9.562;2022-12-10T08:32:24;27.73;;;10.43;;
3415;SDS011;1721;51.238;9.562;2022-12-10T08:34:49;28.03;;;10.20;;
3415;SDS011;1721;51.238;9.562;2022-12-10T08:37:15;29.02;;;10.48;;
3415;SDS011;1721;51.238;9.562;2022-12-10T08:39:40;27.33;;;10.65;;
3415;SDS011;1721;51.238;9.562;2022-12-10T08:42:06;30.30;;;10.90;;
3415;SDS011;1721;51.238;9.562;2022-12-10T08:44:32;29.33;;;10.67;;
3415;SDS011;1721;51.238;9.562;2022-12-10T08:46:57;30.08;;;10.70;;
3415;SDS011;1721;51.238;9.562;2022-12-10T08:49:23;27.08;;;10.25;;
3415;SDS011;1721;51.238;9.562;2022-12-10T08:51:48;28.93;;;11.03;;
3415;SDS011;1721;51.238;9.562;2022-12-10T08:54:14;33.30;;;11.83;;
3415;SDS011;1721;51.238;9.562;2022-12-10T08:56:39;31.58;;;11.73;;
3415;SDS011;1721;51.238;9.562;2022-12-10T08:59:05;28.35;;;10.38;;
3415;SDS011;1721;51.238;9.562;2022-12-10T09:01:32;30.85;;;11.52;;
3415;SDS011;1721;51.238;9.562;2022-12-10T09:03:57;27.17;;;10.43;;
3415;SDS011;1721;51.238;9.562;2022-12-10T09:06:23;28.65;;;10.65;;
3415;SDS011;1721;51.238;9.562;2022-12-10T09:08:49;30.27;;;10.00;;
3415;SDS011;1721;51.238;9.562;2022-12-10T09:11:20;31.77;;;10.60;;
3415;SDS011;1721;51.238;9.562;2022-12-10T09:13:47;28.05;;;10.70;;
3415;SDS011;1721;51.238;9.562;2022-12-10T09:16:13;31.08;;;10.85;;
3415;SDS011;1721;51.238;9.562;2022-12-10T09:18:40;38.92;;;12.15;;
3415;SDS011;1721;51.238;9.562;2022-12-10T09:21:06;37.73;;;11.83;;
3415;SDS011;1721;51.238;9.562;2022-12-10T09:23:34;35.65;;;12.00;;
3415;SDS011;1721;51.238;9.562;2022-12-10T09:25:59;33.60;;;11.38;;
3415;SDS011;1721;51.238;9.562;2022-12-10T09:28:25;29.92;;;11.00;;
3415;SDS011;1721;51.238;9.562;2022-12-10T09:30:57;33.23;;;11.00;;
3415;SDS011;1721;51.238;9.562;2022-12-10T09:33:24;27.65;;;11.25;;
3415;SDS011;1721;51.238;9.562;2022-12-10T09:35:51;35.80;;;11.25;;
3415;SDS011;1721;51.238;9.562;2022-12-10T09:38:16;32.35;;;11.85;;
3415;SDS011;1721;51.238;9.562;2022-12-10T09:43:47;39.45;;;12.65;;
3415;SDS011;1721;51.238;9.562;2022-12-10T09:48:52;29.80;;;11.10;;
3415;SDS011;1721;51.238;9.562;2022-12-10T09:51:27;35.95;;;11.45;;
3415;SDS011;1721;51.238;9.562;2022-12-10T09:53:58;32.58;;;11.07;;
3415;SDS011;1721;51.238;9.562;2022-12-10T09:56:29;32.45;;;11.20;;
3415;SDS011;1721;51.238;9.562;2022-12-10T09:59:08;30.98;;;11.02;;
3415;SDS011;1721;51.238;9.562;2022-12-10T10:02:37;39.13;;;11.50;;
3415;SDS011;1721;51.238;9.562;2022-12-10T10:04:46;28.27;;;11.57;;
3415;SDS011;1721;51.238;9.562;2022-12-10T10:07:30;31.23;;;12.20;;
3415;SDS011;1721;51.238;9.562;2022-12-10T10:10:20;31.20;;;11.32;;
3415;SDS011;1721;51.238;9.562;2022-12-10T10:12:51;35.70;;;11.40;;
3415;SDS011;1721;51.238;9.562;2022-12-10T10:15:22;26.77;;;11.75;;
3415;SDS011;1721;51.238;9.562;2022-12-10T10:17:53;32.60;;;10.73;;
3415;SDS011;1721;51.238;9.562;2022-12-10T10:20:23;35.25;;;11.95;;
3415;SDS011;1721;51.238;9.562;2022-12-10T10:22:48;31.40;;;11.33;;
3415;SDS011;1721;51.238;9.562;2022-12-10T10:25:17;32.53;;;11.93;;
3415;SDS011;1721;51.238;9.562;2022-12-10T10:27:44;30.88;;;11.48;;
3415;SDS011;1721;51.238;9.562;2022-12-10T10:30:14;31.45;;;10.60;;
3415;SDS011;1721;51.238;9.562;2022-12-10T10:35:18;30.20;;;10.82;;
3415;SDS011;1721;51.238;9.562;2022-12-10T10:38:05;27.17;;;10.35;;
3415;SDS011;1721;51.238;9.562;2022-12-10T10:40:53;26.85;;;9.73;;
3415;SDS011;1721;51.238;9.562;2022-12-10T10:43:40;31.15;;;11.38;;
3415;SDS011;1721;51.238;9.562;2022-12-10T10:46:16;30.63;;;11.57;;
3415;SDS011;1721;51.238;9.562;2022-12-10T10:48:45;28.92;;;10.38;;
3415;SDS011;1721;51.238;9.562;2022-12-10T10:56:20;31.45;;;11.77;;
3415;SDS011;1721;51.238;9.562;2022-12-10T11:01:54;30.35;;;10.50;;
3415;SDS011;1721;51.238;9.562;2022-12-10T11:04:30;27.92;;;10.15;;
3415;SDS011;1721;51.238;9.562;2022-12-10T11:07:43;30.33;;;10.35;;
3415;SDS011;1721;51.238;9.562;2022-12-10T11:10:15;28.02;;;10.50;;
3415;SDS011;1721;51.238;9.562;2022-12-10T11:12:44;25.50;;;10.05;;
3415;SDS011;1721;51.238;9.562;2022-12-10T11:17:50;24.35;;;9.52;;
3415;SDS011;1721;51.238;9.562;2022-12-10T11:22:49;28.65;;;9.93;;
3415;SDS011;1721;51.238;9.562;2022-12-10T11:25:17;27.40;;;10.32;;
3415;SDS011;1721;51.238;9.562;2022-12-10T11:30:25;26.95;;;10.63;;
3415;SDS011;1721;51.238;9.562;2022-12-10T11:33:00;27.52;;;9.77;;
3415;SDS011;1721;51.238;9.562;2022-12-10T11:41:33;26.75;;;9.77;;
3415;SDS011;1721;51.238;9.562;2022-12-10T11:55:21;28.65;;;10.00;;
3415;SDS011;1721;51.238;9.562;2022-12-10T11:58:15;22.60;;;9.13;;
3415;SDS011;1721;51.238;9.562;2022-12-10T12:06:28;20.65;;;8.20;;
3415;SDS011;1721;51.238;9.562;2022-12-10T12:14:39;24.00;;;8.80;;
3415;SDS011;1721;51.238;9.562;2022-12-10T12:19:52;20.42;;;7.65;;
3415;SDS011;1721;51.238;9.562;2022-12-10T12:22:25;20.45;;;7.72;;
3415;SDS011;1721;51.238;9.562;2022-12-10T12:25:29;30.30;;;8.13;;
3415;SDS011;1721;51.238;9.562;2022-12-10T12:27:59;19.92;;;7.93;;
3415;SDS011;1721;51.238;9.562;2022-12-10T12:30:36;21.75;;;7.70;;
3415;SDS011;1721;51.238;9.562;2022-12-10T12:35:49;22.20;;;7.30;;
3415;SDS011;1721;51.238;9.562;2022-12-10T12:41:17;21.80;;;7.97;;
3415;SDS011;1721;51.238;9.562;2022-12-10T12:44:21;20.60;;;7.30;;
3415;SDS011;1721;51.238;9.562;2022-12-10T12:46:58;20.23;;;8.00;;
3415;SDS011;1721;51.238;9.562;2022-12-10T12:49:40;15.35;;;6.45;;
3415;SDS011;1721;51.238;9.562;2022-12-10T12:55:00;20.02;;;7.82;;
3415;SDS011;1721;51.238;9.562;2022-12-10T13:00:03;16.00;;;6.30;;
3415;SDS011;1721;51.238;9.562;2022-12-10T13:02:47;18.05;;;6.95;;
3415;SDS011;1721;51.238;9.562;2022-12-10T13:05:34;21.15;;;6.70;;
3415;SDS011;1721;51.238;9.562;2022-12-10T13:10:53;17.02;;;6.15;;
3415;SDS011;1721;51.238;9.562;2022-12-10T13:13:23;19.70;;;6.95;;
3415;SDS011;1721;51.238;9.562;2022-12-10T13:15:55;16.35;;;6.40;;
3415;SDS011;1721;51.238;9.562;2022-12-10T13:18:23;17.45;;;6.60;;
3415;SDS011;1721;51.238;9.562;2022-12-10T13:23:47;17.65;;;7.00;;
3415;SDS011;1721;51.238;9.562;2022-12-10T13:26:26;13.48;;;6.45;;
3415;SDS011;1721;51.238;9.562;2022-12-10T13:28:53;17.57;;;6.30;;
3415;SDS011;1721;51.238;9.562;2022-12-10T13:41:30;16.73;;;5.70;;
3415;SDS011;1721;51.238;9.562;2022-12-10T13:44:34;15.27;;;6.82;;
3415;SDS011;1721;51.238;9.562;2022-12-10T13:52:19;15.43;;;5.45;;
3415;SDS011;1721;51.238;9.562;2022-12-10T13:57:45;14.73;;;5.60;;
3415;SDS011;1721;51.238;9.562;2022-12-10T14:06:25;14.07;;;5.90;;
3415;SDS011;1721;51.238;9.562;2022-12-10T14:11:28;16.40;;;6.05;;
3415;SDS011;1721;51.238;9.562;2022-12-10T14:13:58;19.02;;;6.70;;
3415;SDS011;1721;51.238;9.562;2022-12-10T14:16:27;15.80;;;6.00;;
3415;SDS011;1721;51.238;9.562;2022-12-10T14:19:00;15.00;;;6.15;;
3415;SDS011;1721;51.238;9.562;2022-12-10T14:21:33;15.98;;;6.20;;
3415;SDS011;1721;51.238;9.562;2022-12-10T14:24:00;17.80;;;7.30;;
3415;SDS011;1721;51.238;9.562;2022-12-10T14:26:27;16.92;;;7.20;;
3415;SDS011;1721;51.238;9.562;2022-12-10T14:28:57;17.50;;;6.25;;
3415;SDS011;1721;51.238;9.562;2022-12-10T14:31:38;16.50;;;6.60;;
3415;SDS011;1721;51.238;9.562;2022-12-10T14:34:10;17.02;;;6.38;;
3415;SDS011;1721;51.238;9.562;2022-12-10T14:36:45;18.38;;;6.95;;
3415;SDS011;1721;51.238;9.562;2022-12-10T14:39:24;14.45;;;6.35;;
3415;SDS011;1721;51.238;9.562;2022-12-10T14:41:53;17.27;;;7.30;;
3415;SDS011;1721;51.238;9.562;2022-12-10T14:44:25;20.83;;;7.60;;
3415;SDS011;1721;51.238;9.562;2022-12-10T14:46:57;17.95;;;6.68;;
3415;SDS011;1721;51.238;9.562;2022-12-10T14:49:38;17.45;;;7.50;;
3415;SDS011;1721;51.238;9.562;2022-12-10T14:52:09;22.25;;;7.65;;
3415;SDS011;1721;51.238;9.562;2022-12-10T14:54:42;21.77;;;7.78;;
3415;SDS011;1721;51.238;9.562;2022-12-10T14:57:13;16.87;;;7.50;;
3415;SDS011;1721;51.238;9.562;2022-12-10T14:59:45;20.15;;;7.97;;
3415;SDS011;1721;51.238;9.562;2022-12-10T15:02:15;22.80;;;8.13;;
3415;SDS011;1721;51.238;9.562;2022-12-10T15:04:48;22.40;;;8.57;;
3415;SDS011;1721;51.238;9.562;2022-12-10T15:07:18;20.33;;;7.85;;
3415;SDS011;1721;51.238;9.562;2022-12-10T15:09:47;25.33;;;8.40;;
3415;SDS011;1721;51.238;9.562;2022-12-10T15:12:32;21.63;;;8.55;;
3415;SDS011;1721;51.238;9.562;2022-12-10T15:15:30;21.15;;;8.20;;
3415;SDS011;1721;51.238;9.562;2022-12-10T15:17:55;18.10;;;7.75;;
3415;SDS011;1721;51.238;9.562;2022-12-10T15:20:26;24.45;;;8.32;;
3415;SDS011;1721;51.238;9.562;2022-12-10T15:22:55;22.23;;;8.05;;
3415;SDS011;1721;51.238;9.562;2022-12-10T15:25:40;26.50;;;8.23;;
3415;SDS011;1721;51.238;9.562;2022-12-10T15:28:26;24.23;;;8.55;;
3415;SDS011;1721;51.238;9.562;2022-12-10T15:33:45;20.85;;;7.70;;
3415;SDS011;1721;51.238;9.562;2022-12-10T15:41:54;24.30;;;10.17;;
3415;SDS011;1721;51.238;9.562;2022-12-10T15:44:41;21.27;;;8.85;;
3415;SDS011;1721;51.238;9.562;2022-12-10T15:49:42;20.67;;;9.20;;
3415;SDS011;1721;51.238;9.562;2022-12-10T15:52:12;22.77;;;8.98;;
3415;SDS011;1721;51.238;9.562;2022-12-10T15:54:40;23.33;;;9.23;;
3415;SDS011;1721;51.238;9.562;2022-12-10T15:57:13;19.92;;;8.20;;
3415;SDS011;1721;51.238;9.562;2022-12-10T15:59:41;19.67;;;8.75;;
3415;SDS011;1721;51.238;9.562;2022-12-10T16:07:42;21.60;;;8.80;;
3415;SDS011;1721;51.238;9.562;2022-12-10T16:10:10;21.37;;;8.80;;
3415;SDS011;1721;51.238;9.562;2022-12-10T16:12:37;23.15;;;9.32;;
3415;SDS011;1721;51.238;9.562;2022-12-10T16:15:04;25.33;;;8.70;;
3415;SDS011;1721;51.238;9.562;2022-12-10T16:17:32;19.17;;;7.72;;
3415;SDS011;1721;51.238;9.562;2022-12-10T16:19:58;21.58;;;7.97;;
3415;SDS011;1721;51.238;9.562;2022-12-10T16:22:25;21.80;;;8.27;;
3415;SDS011;1721;51.238;9.562;2022-12-10T16:24:51;22.10;;;8.77;;
3415;SDS011;1721;51.238;9.562;2022-12-10T16:27:17;21.73;;;8.60;;
3415;SDS011;1721;51.238;9.562;2022-12-10T16:29:42;21.45;;;8.93;;
3415;SDS011;1721;51.238;9.562;2022-12-10T16:32:09;18.45;;;7.50;;
3415;SDS011;1721;51.238;9.562;2022-12-10T16:34:35;17.00;;;7.22;;
3415;SDS011;1721;51.238;9.562;2022-12-10T16:37:01;18.70;;;7.50;;
3415;SDS011;1721;51.238;9.562;2022-12-10T16:39:27;17.80;;;7.53;;
3415;SDS011;1721;51.238;9.562;2022-12-10T16:41:53;17.75;;;7.55;;
3415;SDS011;1721;51.238;9.562;2022-12-10T16:44:19;18.20;;;7.38;;
3415;SDS011;1721;51.238;9.562;2022-12-10T16:46:46;16.77;;;7.40;;
3415;SDS011;1721;51.238;9.562;2022-12-10T16:49:11;19.35;;;7.65;;
3415;SDS011;1721;51.238;9.562;2022-12-10T16:51:37;19.10;;;7.18;;
3415;SDS011;1721;51.238;9.562;2022-12-10T16:54:03;18.25;;;7.45;;
3415;SDS011;1721;51.238;9.562;2022-12-10T16:56:29;16.25;;;6.43;;
3415;SDS011;1721;51.238;9.562;2022-12-10T16:58:55;17.85;;;7.03;;
3415;SDS011;1721;51.238;9.562;2022-12-10T17:01:23;16.50;;;6.97;;
3415;SDS011;1721;51.238;9.562;2022-12-10T17:03:52;24.85;;;7.00;;
3415;SDS011;1721;51.238;9.562;2022-12-10T17:06:19;15.57;;;6.20;;
3415;SDS011;1721;51.238;9.562;2022-12-10T17:08:46;16.48;;;6.63;;
3415;SDS011;1721;51.238;9.562;2022-12-10T17:11:16;14.40;;;6.27;;
3415;SDS011;1721;51.238;9.562;2022-12-10T17:16:51;15.27;;;6.40;;
3415;SDS011;1721;51.238;9.562;2022-12-10T17:19:19;14.30;;;5.60;;
3415;SDS011;1721;51.238;9.562;2022-12-10T17:21:45;13.60;;;5.80;;
3415;SDS011;1721;51.238;9.562;2022-12-10T17:24:11;15.63;;;6.85;;